Time;durP1;ratioP1;P1;durP2;ratioP2;P2;SDS_P1;SDS_P2;PMS_P1;PMS_P2;Temp;Humidity;BMP_temperature;BMP_pressure;BME280_temperature;BME280_humidity;BME280_pressure;Samples;Min_cycle;Max_cycle;Signal;HPM_P1;HPM_P2
2023/11/17 00:00:05;;;;;;;41.10;13.32;;;7.90;99.90;;;;;;5038868;28;20663;-81
2023/11/17 00:02:32;;;;;;;40.85;14.65;;;8.00;99.90;;;;;;5022949;28;20551;-81
2023/11/17 00:04:58;;;;;;;42.45;13.45;;;8.00;99.90;;;;;;5040038;28;20209;-82
2023/11/17 00:07:24;;;;;;;41.80;14.07;;;8.00;99.90;;;;;;5040293;28;20200;-81
2023/11/17 00:09:49;;;;;;;42.37;14.40;;;7.90;99.90;;;;;;5022575;28;20170;-81
2023/11/17 00:12:15;;;;;;;44.90;15.40;;;7.80;99.90;;;;;;5022401;28;20173;-82
2023/11/17 00:14:42;;;;;;;46.47;14.57;;;7.80;99.90;;;;;;5040278;28;20185;-81
2023/11/17 00:17:10;;;;;;;41.92;12.55;;;7.90;99.90;;;;;;5040790;28;20181;-82
2023/11/17 00:19:36;;;;;;;42.42;14.90;;;7.90;99.90;;;;;;5025711;28;20170;-81
2023/11/17 00:22:01;;;;;;;41.73;14.40;;;7.80;99.90;;;;;;5040904;28;20542;-81
2023/11/17 00:24:27;;;;;;;47.57;12.63;;;7.80;99.90;;;;;;5040316;28;20182;-82
2023/11/17 00:26:53;;;;;;;47.03;13.80;;;7.70;99.90;;;;;;5040500;28;20563;-82
2023/11/17 00:29:19;;;;;;;42.57;14.37;;;7.70;99.90;;;;;;5022766;28;20191;-82
2023/11/17 00:31:45;;;;;;;46.30;14.38;;;7.70;99.90;;;;;;5040093;28;20158;-81
2023/11/17 00:34:11;;;;;;;40.90;13.13;;;7.60;99.90;;;;;;5022089;28;20205;-82
2023/11/17 00:36:36;;;;;;;36.90;12.20;;;7.60;99.90;;;;;;5040013;28;20547;-81
2023/11/17 00:39:02;;;;;;;40.90;13.13;;;7.60;99.90;;;;;;5022176;28;20181;-82
2023/11/17 00:41:28;;;;;;;36.37;11.70;;;7.50;99.90;;;;;;5039907;28;20178;-81
2023/11/17 00:43:55;;;;;;;39.90;11.77;;;7.50;99.90;;;;;;5005354;28;20950;-82
2023/11/17 00:46:21;;;;;;;39.67;11.32;;;7.40;99.90;;;;;;5039928;28;20591;-81
2023/11/17 00:48:47;;;;;;;40.73;11.73;;;7.30;99.90;;;;;;5039891;28;20216;-82
2023/11/17 00:51:18;;;;;;;36.90;11.67;;;7.40;99.90;;;;;;5022163;28;20411;-81
2023/11/17 00:53:44;;;;;;;36.22;9.80;;;7.40;99.90;;;;;;5021508;28;20204;-81
2023/11/17 00:56:10;;;;;;;37.50;11.05;;;7.30;99.90;;;;;;5021447;28;20655;-82
2023/11/17 00:58:37;;;;;;;40.67;11.35;;;7.40;99.90;;;;;;5039639;28;20178;-82
2023/11/17 01:01:03;;;;;;;34.65;10.60;;;7.30;99.90;;;;;;5039813;28;20192;-82
2023/11/17 01:03:29;;;;;;;39.87;11.23;;;7.20;99.90;;;;;;5022313;28;20189;-82
2023/11/17 01:05:55;;;;;;;33.87;9.20;;;7.20;99.90;;;;;;5022599;28;20420;-81
2023/11/17 01:08:21;;;;;;;35.30;10.30;;;7.20;99.90;;;;;;5039968;28;20172;-81
2023/11/17 01:10:47;;;;;;;35.13;9.30;;;7.10;99.90;;;;;;5040040;28;20197;-81
2023/11/17 01:13:13;;;;;;;34.85;9.88;;;7.10;99.90;;;;;;5021913;28;20420;-82
2023/11/17 01:15:39;;;;;;;33.10;9.87;;;7.10;99.90;;;;;;5039622;28;20195;-82
2023/11/17 01:18:06;;;;;;;34.00;9.33;;;7.20;99.90;;;;;;5021973;28;20436;-81
2023/11/17 01:20:34;;;;;;;35.20;9.55;;;7.10;99.90;;;;;;5039820;28;20623;-81
2023/11/17 01:23:01;;;;;;;33.38;8.82;;;7.10;99.90;;;;;;5039032;28;20543;-81
2023/11/17 01:25:28;;;;;;;38.72;8.95;;;7.10;99.90;;;;;;5039750;28;20166;-81
2023/11/17 01:27:54;;;;;;;38.97;9.05;;;7.00;99.90;;;;;;5039975;28;20185;-81
2023/11/17 01:30:23;;;;;;;30.43;7.93;;;7.10;99.90;;;;;;5039821;28;20197;-81
2023/11/17 01:32:53;;;;;;;29.77;7.63;;;7.10;99.90;;;;;;5039631;28;20416;-82
2023/11/17 01:35:18;;;;;;;32.80;8.52;;;6.90;99.90;;;;;;5022134;28;20162;-81
2023/11/17 01:37:45;;;;;;;33.57;7.83;;;6.90;99.90;;;;;;5022426;28;20559;-81
2023/11/17 01:40:11;;;;;;;32.72;8.27;;;7.00;99.90;;;;;;5039241;28;20405;-81
2023/11/17 01:42:37;;;;;;;31.48;7.72;;;6.90;99.90;;;;;;5039850;28;20174;-81
2023/11/17 01:45:09;;;;;;;33.20;9.50;;;6.90;99.90;;;;;;5021480;28;20212;-81
2023/11/17 01:47:40;;;;;;;33.90;9.00;;;6.90;99.90;;;;;;5021697;28;20486;-81
2023/11/17 01:50:09;;;;;;;34.95;9.30;;;6.90;99.90;;;;;;5021783;28;20169;-81
2023/11/17 01:52:35;;;;;;;38.50;8.52;;;6.80;99.90;;;;;;5044134;28;20189;-81
2023/11/17 01:55:05;;;;;;;32.55;8.00;;;6.80;99.90;;;;;;5022766;28;20186;-82
2023/11/17 01:57:39;;;;;;;32.72;8.35;;;6.90;99.90;;;;;;5040260;28;20166;-81
2023/11/17 02:00:13;;;;;;;41.92;9.68;;;6.90;99.90;;;;;;5040288;28;20238;-81
2023/11/17 02:02:48;;;;;;;35.38;9.40;;;7.00;99.90;;;;;;5023098;28;20165;-81
2023/11/17 02:05:17;;;;;;;34.38;8.40;;;7.00;99.90;;;;;;5043793;28;20185;-81
2023/11/17 02:08:15;;;;;;;36.42;8.95;;;6.90;99.90;;;;;;5043564;28;20209;-81
2023/11/17 02:11:02;;;;;;;42.13;8.85;;;6.90;99.90;;;;;;5043771;28;20599;-82
2023/11/17 02:13:40;;;;;;;33.92;9.00;;;6.90;99.90;;;;;;5025743;28;20536;-81
2023/11/17 02:16:11;;;;;;;38.33;8.23;;;6.90;99.90;;;;;;5026043;28;20232;-81
2023/11/17 02:18:40;;;;;;;33.20;9.80;;;6.80;99.90;;;;;;5025812;28;20162;-82
2023/11/17 02:21:07;;;;;;;36.40;7.97;;;6.80;99.90;;;;;;5026132;28;20173;-82
2023/11/17 02:23:35;;;;;;;34.28;9.60;;;6.80;99.90;;;;;;5025499;28;20186;-81
2023/11/17 02:26:15;;;;;;;38.78;9.57;;;6.80;99.90;;;;;;5026043;28;20189;-81
2023/11/17 02:28:50;;;;;;;31.67;8.48;;;6.80;99.90;;;;;;5025806;28;20249;-81
2023/11/17 02:31:18;;;;;;;34.78;10.45;;;6.70;99.90;;;;;;5043512;28;20145;-81
2023/11/17 02:33:48;;;;;;;36.10;8.73;;;6.80;99.90;;;;;;5043674;28;20188;-81
2023/11/17 02:36:19;;;;;;;35.58;8.80;;;6.70;99.90;;;;;;5026452;28;20169;-81
2023/11/17 02:38:56;;;;;;;37.58;8.35;;;6.70;99.90;;;;;;5042708;28;20142;-82
2023/11/17 02:41:29;;;;;;;34.55;8.02;;;6.70;99.90;;;;;;5043131;28;20154;-81
2023/11/17 02:44:02;;;;;;;32.33;8.45;;;6.60;99.90;;;;;;5025310;28;20185;-81
2023/11/17 02:46:34;;;;;;;31.85;7.75;;;6.50;99.90;;;;;;5043654;28;20178;-81
2023/11/17 02:49:10;;;;;;;34.28;7.95;;;6.30;99.90;;;;;;5025648;28;20189;-81
2023/11/17 02:51:44;;;;;;;35.40;8.15;;;6.20;99.90;;;;;;5025436;28;20156;-81
2023/11/17 02:54:13;;;;;;;30.25;7.63;;;6.00;99.90;;;;;;5024745;28;20280;-81
2023/11/17 02:56:39;;;;;;;40.55;9.10;;;5.90;99.90;;;;;;5041959;28;20162;-81
2023/11/17 02:59:07;;;;;;;32.20;7.32;;;5.80;99.90;;;;;;5042776;28;20302;-81
2023/11/17 03:01:38;;;;;;;36.17;8.32;;;5.70;99.90;;;;;;5042625;28;20640;-81
2023/11/17 03:04:12;;;;;;;39.17;7.82;;;5.70;99.90;;;;;;5024999;28;20281;-81
2023/11/17 03:06:38;;;;;;;29.35;7.78;;;5.60;99.90;;;;;;5042571;28;20539;-81
2023/11/17 03:09:05;;;;;;;33.03;9.07;;;5.50;99.90;;;;;;5042777;28;20165;-81
2023/11/17 03:11:30;;;;;;;33.40;7.95;;;5.40;99.90;;;;;;5024840;28;20174;-81
2023/11/17 03:13:56;;;;;;;35.53;8.60;;;5.40;99.90;;;;;;5041754;28;20782;-81
2023/11/17 03:16:24;;;;;;;31.57;8.60;;;5.40;99.90;;;;;;5042477;28;20235;-81
2023/11/17 03:18:52;;;;;;;30.80;8.38;;;5.30;99.90;;;;;;5024410;28;20169;-81
2023/11/17 03:21:20;;;;;;;32.28;7.88;;;5.30;99.90;;;;;;5042634;28;20169;-81
2023/11/17 03:23:45;;;;;;;31.48;8.35;;;5.20;99.90;;;;;;5043181;28;20232;-81
2023/11/17 03:26:12;;;;;;;31.07;8.17;;;5.20;99.90;;;;;;5046253;28;20174;-81
2023/11/17 03:28:38;;;;;;;31.52;8.10;;;5.10;99.90;;;;;;5042853;28;20176;-81
2023/11/17 03:31:04;;;;;;;31.60;8.07;;;5.10;99.90;;;;;;5024893;28;20169;-81
2023/11/17 03:33:30;;;;;;;31.42;8.38;;;5.10;99.90;;;;;;5042899;28;20189;-81
2023/11/17 03:35:56;;;;;;;35.27;8.33;;;5.00;99.90;;;;;;5042117;28;20162;-81
2023/11/17 03:38:22;;;;;;;35.83;8.10;;;5.00;99.90;;;;;;5024034;28;20408;-81
2023/11/17 03:40:47;;;;;;;30.30;8.37;;;5.00;99.90;;;;;;5024396;28;20413;-81
2023/11/17 03:43:13;;;;;;;33.63;7.80;;;4.90;99.90;;;;;;5041796;28;20316;-81
2023/11/17 03:45:48;;;;;;;40.95;10.38;;;4.90;99.90;;;;;;5042104;28;20185;-81
2023/11/17 03:48:16;;;;;;;33.00;8.50;;;4.80;99.90;;;;;;5041457;28;20197;-81
2023/11/17 03:50:42;;;;;;;37.78;8.38;;;4.80;99.90;;;;;;5042111;28;20253;-81
2023/11/17 03:53:08;;;;;;;33.70;8.90;;;4.70;99.90;;;;;;5041798;28;20208;-81
2023/11/17 03:55:34;;;;;;;35.70;9.80;;;4.70;99.90;;;;;;5042148;28;20170;-82
2023/11/17 03:58:06;;;;;;;32.07;9.70;;;4.70;99.90;;;;;;5041684;28;20782;-81
2023/11/17 04:00:33;;;;;;;36.97;9.48;;;4.70;99.90;;;;;;5022113;28;20208;-81
2023/11/17 04:02:59;;;;;;;33.40;10.65;;;4.70;99.90;;;;;;5023579;28;20276;-81
2023/11/17 04:05:25;;;;;;;37.90;10.00;;;4.70;99.90;;;;;;5040933;28;20194;-81
2023/11/17 04:07:55;;;;;;;32.58;9.95;;;4.60;99.90;;;;;;5040899;28;20197;-82
2023/11/17 04:10:24;;;;;;;35.85;10.43;;;4.60;99.90;;;;;;5041050;28;20192;-82
2023/11/17 04:12:50;;;;;;;36.42;11.20;;;4.70;99.90;;;;;;5041262;28;20166;-81
2023/11/17 04:15:16;;;;;;;41.70;10.93;;;4.60;99.90;;;;;;5022410;28;20233;-81
2023/11/17 04:17:41;;;;;;;37.33;12.33;;;4.60;99.90;;;;;;5041052;28;20909;-81
2023/11/17 04:20:14;;;;;;;40.47;11.20;;;4.70;99.90;;;;;;5041091;28;20268;-81
2023/11/17 04:22:41;;;;;;;37.63;12.20;;;4.70;99.90;;;;;;5041290;28;20146;-81
2023/11/17 04:25:07;;;;;;;37.88;12.38;;;4.70;99.90;;;;;;5040451;28;20189;-81
2023/11/17 04:27:32;;;;;;;42.53;13.10;;;4.70;99.90;;;;;;5022606;28;20236;-81
2023/11/17 04:30:01;;;;;;;52.80;15.70;;;4.80;99.90;;;;;;5041579;28;20436;-81
2023/11/17 04:32:27;;;;;;;43.15;15.93;;;4.90;99.90;;;;;;5024212;28;20193;-81
2023/11/17 04:34:52;;;;;;;51.37;17.23;;;5.10;99.90;;;;;;5042475;28;20655;-81
2023/11/17 04:37:19;;;;;;;48.63;17.50;;;5.40;99.90;;;;;;5024335;28;20177;-81
2023/11/17 04:39:44;;;;;;;48.55;16.02;;;5.50;99.90;;;;;;5042194;28;20187;-81
2023/11/17 04:42:10;;;;;;;46.30;17.50;;;5.50;99.90;;;;;;5023837;28;20201;-81
2023/11/17 04:44:36;;;;;;;45.47;15.10;;;5.50;99.90;;;;;;5023797;28;20376;-81
2023/11/17 04:47:01;;;;;;;46.93;17.20;;;5.40;99.90;;;;;;5041323;28;20190;-81
2023/11/17 04:49:27;;;;;;;44.40;16.07;;;5.40;99.90;;;;;;5041948;28;20166;-81
2023/11/17 04:51:53;;;;;;;41.40;14.83;;;5.30;99.90;;;;;;5041629;28;20245;-82
2023/11/17 04:54:20;;;;;;;50.70;15.80;;;5.30;99.90;;;;;;5042008;28;20443;-81
2023/11/17 04:56:46;;;;;;;49.50;18.00;;;5.20;99.90;;;;;;5044304;28;20165;-81
2023/11/17 04:59:15;;;;;;;46.38;16.27;;;5.20;99.90;;;;;;5045516;28;20189;-81
2023/11/17 05:01:41;;;;;;;50.50;16.55;;;5.20;99.90;;;;;;5042217;28;20146;-81
2023/11/17 05:04:07;;;;;;;46.40;16.60;;;5.20;99.90;;;;;;5041775;28;20189;-81
2023/11/17 05:06:35;;;;;;;45.47;14.83;;;5.20;99.90;;;;;;5023956;28;20212;-81
2023/11/17 05:09:01;;;;;;;47.13;16.95;;;5.20;99.90;;;;;;5040795;28;20409;-81
2023/11/17 05:11:31;;;;;;;43.80;15.33;;;5.20;99.90;;;;;;5042182;28;20258;-81
2023/11/17 05:13:58;;;;;;;50.08;15.88;;;5.20;99.90;;;;;;5023275;28;20190;-81
2023/11/17 05:16:25;;;;;;;46.13;16.60;;;5.20;99.90;;;;;;5041377;28;20181;-81
2023/11/17 05:18:51;;;;;;;42.88;14.20;;;5.20;99.90;;;;;;5023648;28;20687;-81
2023/11/17 05:21:17;;;;;;;46.93;16.70;;;5.10;99.90;;;;;;5040544;28;20166;-81
2023/11/17 05:23:42;;;;;;;44.07;15.07;;;5.10;99.90;;;;;;5041393;28;20239;-81
2023/11/17 05:26:08;;;;;;;40.80;14.03;;;5.10;99.90;;;;;;5023243;28;20173;-81
2023/11/17 05:28:34;;;;;;;41.60;14.17;;;5.00;99.90;;;;;;5041374;28;20174;-81
2023/11/17 05:31:02;;;;;;;43.33;13.73;;;5.00;99.90;;;;;;5041386;28;20562;-81
2023/11/17 05:33:29;;;;;;;41.47;14.30;;;4.90;99.90;;;;;;5023446;28;20236;-81
2023/11/17 05:35:56;;;;;;;41.28;14.23;;;4.90;99.90;;;;;;5023978;28;20254;-81
2023/11/17 05:38:26;;;;;;;42.45;14.25;;;4.90;99.90;;;;;;5044231;28;20158;-81
2023/11/17 05:40:52;;;;;;;42.08;13.55;;;4.80;99.90;;;;;;5027520;28;20200;-81
2023/11/17 05:43:18;;;;;;;40.80;13.57;;;4.70;99.90;;;;;;5027601;28;20190;-81
2023/11/17 05:45:49;;;;;;;40.20;14.40;;;4.80;99.90;;;;;;5045453;28;20894;-81
2023/11/17 05:48:16;;;;;;;44.65;14.48;;;4.80;99.90;;;;;;5044243;28;20574;-81
2023/11/17 05:50:41;;;;;;;46.90;15.82;;;4.80;99.90;;;;;;5027643;28;20174;-81
2023/11/17 05:53:07;;;;;;;45.77;14.77;;;4.90;99.90;;;;;;5044893;28;20635;-81
2023/11/17 05:55:33;;;;;;;44.30;15.37;;;4.80;99.90;;;;;;5044890;28;20717;-81
2023/11/17 05:57:58;;;;;;;42.90;15.20;;;4.90;99.90;;;;;;5044710;28;20531;-81
2023/11/17 06:00:27;;;;;;;50.00;17.70;;;5.00;99.90;;;;;;5026781;28;20190;-81
2023/11/17 06:02:53;;;;;;;48.10;17.30;;;5.00;99.90;;;;;;5044746;28;20922;-81
2023/11/17 06:05:19;;;;;;;45.28;17.08;;;5.00;99.90;;;;;;5044774;28;20177;-81
2023/11/17 06:07:45;;;;;;;46.90;16.67;;;5.10;99.90;;;;;;5044704;28;20200;-81
2023/11/17 06:10:11;;;;;;;56.60;18.50;;;5.20;99.90;;;;;;5044525;28;20169;-81
2023/11/17 06:12:37;;;;;;;56.55;18.95;;;5.20;99.90;;;;;;5026960;28;20173;-81
2023/11/17 06:15:06;;;;;;;50.30;19.23;;;5.30;99.90;;;;;;5027236;28;20186;-81
2023/11/17 06:17:32;;;;;;;54.03;20.05;;;5.30;99.90;;;;;;5027160;28;20844;-81
2023/11/17 06:20:00;;;;;;;57.60;20.33;;;5.30;99.90;;;;;;5044443;28;20170;-81
2023/11/17 06:22:27;;;;;;;52.03;18.63;;;5.30;99.90;;;;;;5044452;28;20407;-81
2023/11/17 06:24:53;;;;;;;55.70;21.13;;;5.30;99.90;;;;;;5045258;28;20192;-81
2023/11/17 06:27:19;;;;;;;51.67;18.00;;;5.20;99.90;;;;;;5045649;28;20249;-81
2023/11/17 06:29:45;;;;;;;55.72;21.45;;;5.10;99.90;;;;;;5048418;28;20420;-81
2023/11/17 06:32:11;;;;;;;59.00;19.73;;;5.10;99.90;;;;;;5029863;28;20174;-81
2023/11/17 06:34:38;;;;;;;67.07;20.90;;;5.20;99.90;;;;;;5044145;28;20479;-81
2023/11/17 06:37:05;;;;;;;56.00;19.35;;;5.30;99.90;;;;;;5044567;28;20174;-81
2023/11/17 06:39:31;;;;;;;59.60;19.98;;;5.40;99.90;;;;;;5044512;28;20215;-81
2023/11/17 06:41:57;;;;;;;58.08;18.40;;;5.40;99.90;;;;;;5044858;28;20158;-81
2023/11/17 06:44:25;;;;;;;53.30;18.80;;;5.40;99.90;;;;;;5044353;28;20193;-81
2023/11/17 06:46:51;;;;;;;56.72;21.38;;;5.40;99.90;;;;;;5043716;28;20444;-81
2023/11/17 06:49:19;;;;;;;52.00;18.30;;;5.50;99.90;;;;;;5025934;28;20169;-81
2023/11/17 06:51:48;;;;;;;52.78;19.27;;;5.50;99.90;;;;;;5044369;28;20571;-81
2023/11/17 06:54:15;;;;;;;50.05;18.90;;;5.40;99.90;;;;;;5026710;28;20206;-81
2023/11/17 06:56:42;;;;;;;49.70;17.27;;;5.40;99.90;;;;;;5043125;28;20170;-81
2023/11/17 06:59:12;;;;;;;52.83;18.27;;;5.40;99.90;;;;;;5043337;28;20636;-81
2023/11/17 07:01:41;;;;;;;51.47;16.20;;;5.40;99.90;;;;;;5025663;28;20215;-80
2023/11/17 07:04:07;;;;;;;49.17;18.77;;;5.40;99.90;;;;;;5044450;28;20194;-80
2023/11/17 07:06:34;;;;;;;50.45;18.38;;;5.30;99.90;;;;;;5026643;28;20193;-81
2023/11/17 07:09:30;;;;;;;46.55;16.00;;;5.30;99.90;;;;;;5043829;28;20162;-81
2023/11/17 07:11:54;;;;;;;47.55;15.85;;;5.30;99.90;;;;;;5042754;28;20666;-81
2023/11/17 07:14:22;;;;;;;45.70;15.67;;;5.30;99.90;;;;;;5043011;28;20182;-81
2023/11/17 07:16:51;;;;;;;48.00;14.55;;;5.30;99.90;;;;;;5042867;28;20177;-81
2023/11/17 07:19:17;;;;;;;48.60;16.35;;;5.30;99.90;;;;;;5042102;28;20177;-81
2023/11/17 07:21:50;;;;;;;45.00;14.20;;;5.40;99.90;;;;;;5042972;28;20207;-81
2023/11/17 07:24:17;;;;;;;48.78;14.48;;;5.40;99.90;;;;;;5042596;28;20186;-81
2023/11/17 07:26:46;;;;;;;44.50;15.18;;;5.40;99.90;;;;;;5024983;28;20193;-81
2023/11/17 07:29:16;;;;;;;42.70;14.00;;;5.40;99.90;;;;;;5043831;28;20169;-80
2023/11/17 07:31:43;;;;;;;53.45;17.35;;;5.40;99.90;;;;;;5026124;28;20196;-81
2023/11/17 07:34:16;;;;;;;48.42;15.48;;;5.40;99.90;;;;;;5026063;28;20217;-81
2023/11/17 07:36:44;;;;;;;55.28;17.92;;;5.40;99.90;;;;;;5043531;28;20174;-80
2023/11/17 07:39:13;;;;;;;53.70;17.55;;;5.40;99.90;;;;;;5044136;28;20170;-81
2023/11/17 07:41:42;;;;;;;50.30;17.30;;;5.40;99.90;;;;;;5125347;22;20222;-80
2023/11/17 07:44:08;;;;;;;51.08;16.83;;;5.50;99.90;;;;;;5042527;28;20563;-80
2023/11/17 07:46:35;;;;;;;61.92;18.95;;;5.60;99.90;;;;;;5028856;28;20211;-80
2023/11/17 07:49:06;;;;;;;56.35;19.05;;;5.70;99.90;;;;;;5029207;28;20524;-80
2023/11/17 07:51:34;;;;;;;55.63;19.65;;;5.80;99.90;;;;;;5046779;28;20248;-80
2023/11/17 07:54:00;;;;;;;53.80;19.60;;;5.80;99.90;;;;;;5047546;28;20216;-80
2023/11/17 07:56:27;;;;;;;55.40;19.67;;;5.80;99.90;;;;;;5029584;28;20166;-80
2023/11/17 07:58:53;;;;;;;57.13;20.95;;;5.80;99.90;;;;;;5046990;28;20218;-81
2023/11/17 08:01:19;;;;;;;60.13;19.30;;;5.90;99.90;;;;;;5046307;28;20219;-80
2023/11/17 08:03:45;;;;;;;50.03;17.30;;;5.90;99.90;;;;;;5047545;28;20336;-81
2023/11/17 08:06:12;;;;;;;58.20;17.60;;;5.90;99.90;;;;;;5049895;28;20158;-80
2023/11/17 08:08:40;;;;;;;59.15;19.45;;;6.00;99.90;;;;;;5029341;28;20941;-80
2023/11/17 08:11:09;;;;;;;52.67;19.40;;;6.00;99.90;;;;;;5047192;28;20165;-80
2023/11/17 08:13:37;;;;;;;53.00;17.92;;;6.10;99.90;;;;;;5047009;28;20557;-81
2023/11/17 08:16:05;;;;;;;57.65;19.02;;;6.20;99.90;;;;;;5045845;28;20143;-80
2023/11/17 08:18:33;;;;;;;60.17;19.30;;;6.30;99.90;;;;;;5028430;28;20530;-81
2023/11/17 08:20:59;;;;;;;52.13;18.25;;;6.40;99.90;;;;;;5043262;28;20261;-80
2023/11/17 08:23:26;;;;;;;52.72;19.50;;;6.50;99.90;;;;;;5028141;28;20224;-80
2023/11/17 08:25:52;;;;;;;53.63;19.55;;;6.50;99.90;;;;;;5028199;28;20236;-80
2023/11/17 08:28:18;;;;;;;56.80;20.73;;;6.50;99.90;;;;;;5027904;28;20190;-80
2023/11/17 08:30:44;;;;;;;54.15;19.98;;;6.60;99.90;;;;;;5028899;28;20198;-80
2023/11/17 08:33:10;;;;;;;57.70;19.93;;;6.50;99.90;;;;;;5027503;28;20166;-80
2023/11/17 08:35:37;;;;;;;52.00;18.15;;;6.50;99.90;;;;;;5045980;28;20397;-80
2023/11/17 08:38:03;;;;;;;57.67;18.80;;;6.50;99.90;;;;;;5046953;28;20158;-80
2023/11/17 08:40:29;;;;;;;55.60;20.10;;;6.60;99.90;;;;;;5024938;28;20670;-80
2023/11/17 08:42:55;;;;;;;65.47;18.87;;;6.70;99.90;;;;;;5043846;28;20416;-80
2023/11/17 08:45:21;;;;;;;57.27;20.30;;;6.70;99.90;;;;;;5046486;28;20244;-81
2023/11/17 08:47:50;;;;;;;57.63;21.77;;;6.70;99.90;;;;;;5025807;28;20186;-80
2023/11/17 08:50:16;;;;;;;62.63;19.10;;;6.70;99.90;;;;;;5028743;28;20165;-80
2023/11/17 08:52:44;;;;;;;57.08;22.13;;;6.70;99.90;;;;;;5046028;28;20161;-80
2023/11/17 08:55:14;;;;;;;58.83;23.35;;;6.70;99.90;;;;;;5046019;28;20186;-80
2023/11/17 08:57:41;;;;;;;58.45;22.65;;;6.70;99.90;;;;;;5027820;28;20301;-80
2023/11/17 09:00:18;;;;;;;56.22;20.85;;;6.70;99.90;;;;;;5028309;28;20166;-80
2023/11/17 09:02:45;;;;;;;56.47;21.60;;;6.70;99.90;;;;;;5029005;28;20516;-80
2023/11/17 09:05:12;;;;;;;65.43;21.85;;;6.60;99.90;;;;;;5026873;28;20196;-80
2023/11/17 09:07:42;;;;;;;61.67;21.40;;;6.70;99.90;;;;;;5021852;28;20197;-80
2023/11/17 09:10:14;;;;;;;58.85;21.27;;;6.70;99.90;;;;;;5023955;28;20257;-80
2023/11/17 09:12:42;;;;;;;74.82;53.10;;;6.70;99.90;;;;;;5030971;28;20176;-80
2023/11/17 09:15:09;;;;;;;63.80;23.50;;;6.70;99.90;;;;;;5031834;28;20208;-80
2023/11/17 09:17:36;;;;;;;75.25;35.35;;;6.70;99.90;;;;;;5030997;28;20180;-80
2023/11/17 09:20:09;;;;;;;64.88;21.05;;;6.70;99.90;;;;;;5014566;28;20230;-80
2023/11/17 09:22:38;;;;;;;62.40;21.15;;;6.80;99.90;;;;;;5029751;28;20192;-79
2023/11/17 09:25:14;;;;;;;57.83;23.65;;;6.80;99.90;;;;;;5048931;28;20196;-80
2023/11/17 09:27:44;;;;;;;65.75;23.75;;;6.80;99.90;;;;;;5046181;28;20173;-79
2023/11/17 09:30:14;;;;;;;63.10;23.75;;;6.80;99.90;;;;;;5030140;28;20240;-79
2023/11/17 09:32:48;;;;;;;67.97;27.15;;;6.80;99.90;;;;;;5047834;28;20563;-79
2023/11/17 09:35:15;;;;;;;63.10;23.65;;;6.80;99.90;;;;;;5029322;28;20190;-79
2023/11/17 09:37:53;;;;;;;61.38;23.63;;;6.80;99.90;;;;;;5029588;28;20170;-80
2023/11/17 09:40:29;;;;;;;60.80;23.40;;;6.90;99.90;;;;;;5051248;28;20180;-79
2023/11/17 09:42:57;;;;;;;66.68;24.30;;;6.90;99.90;;;;;;5030511;28;20185;-79
2023/11/17 09:45:30;;;;;;;60.80;23.58;;;6.80;99.90;;;;;;5028643;28;20188;-79
2023/11/17 09:48:01;;;;;;;65.30;25.15;;;6.90;99.90;;;;;;5046327;28;20186;-80
2023/11/17 09:50:30;;;;;;;60.75;22.73;;;6.90;99.90;;;;;;5046001;28;20161;-80
2023/11/17 09:52:59;;;;;;;63.50;24.52;;;6.90;99.90;;;;;;5025434;28;20169;-79
2023/11/17 09:55:28;;;;;;;61.90;23.80;;;7.10;99.90;;;;;;5026153;28;20233;-79
2023/11/17 09:58:02;;;;;;;61.53;23.15;;;7.20;99.90;;;;;;5044805;28;20168;-80
2023/11/17 10:00:28;;;;;;;61.42;22.88;;;7.20;99.90;;;;;;5045157;28;20150;-80
2023/11/17 10:02:56;;;;;;;68.78;24.27;;;7.10;99.90;;;;;;5045938;28;20666;-79
2023/11/17 10:05:23;;;;;;;58.78;22.92;;;7.10;99.90;;;;;;5045751;28;20311;-79
2023/11/17 10:07:51;;;;;;;70.03;23.98;;;7.10;99.90;;;;;;5045010;28;20558;-80
2023/11/17 10:10:20;;;;;;;68.00;24.30;;;7.00;99.90;;;;;;5044624;28;20296;-80
2023/11/17 10:12:48;;;;;;;60.65;24.15;;;7.00;99.90;;;;;;5045384;28;20224;-80
2023/11/17 10:15:24;;;;;;;71.03;23.65;;;7.00;99.90;;;;;;5027747;28;20197;-80
2023/11/17 10:17:53;;;;;;;65.85;25.60;;;7.00;99.90;;;;;;5044704;28;20157;-80
2023/11/17 10:20:22;;;;;;;68.38;23.98;;;7.10;99.90;;;;;;5044141;28;20674;-80
2023/11/17 10:22:49;;;;;;;64.65;26.20;;;7.10;99.90;;;;;;5025991;28;20647;-80
2023/11/17 10:25:18;;;;;;;63.55;24.73;;;7.00;99.90;;;;;;5039692;28;20180;-80
2023/11/17 10:27:50;;;;;;;67.93;26.50;;;7.10;99.90;;;;;;5041568;28;20185;-80
2023/11/17 10:30:19;;;;;;;63.65;24.48;;;7.10;99.90;;;;;;5040498;28;20170;-80
2023/11/17 10:33:26;;;;;;;66.97;25.27;;;7.20;99.90;;;;;;5022235;28;20173;-80
2023/11/17 10:36:12;;;;;;;72.95;27.33;;;7.20;99.90;;;;;;5010844;28;20178;-80
2023/11/17 10:38:39;;;;;;;73.55;24.85;;;7.20;99.90;;;;;;5021324;28;20181;-80
2023/11/17 10:41:30;;;;;;;72.53;26.60;;;7.20;99.90;;;;;;5021248;28;20284;-80
2023/11/17 10:43:58;;;;;;;70.03;25.58;;;7.30;99.90;;;;;;5021844;28;20198;-80
2023/11/17 10:46:40;;;;;;;69.55;26.10;;;7.40;99.90;;;;;;5039676;28;20162;-81
2023/11/17 10:49:17;;;;;;;72.75;26.45;;;7.60;99.90;;;;;;5022478;28;20154;-81
2023/11/17 10:51:47;;;;;;;66.05;25.42;;;7.60;99.90;;;;;;5040300;28;20512;-81
2023/11/17 10:54:12;;;;;;;65.55;27.20;;;7.70;99.90;;;;;;5040674;28;20184;-81
2023/11/17 10:56:40;;;;;;;61.17;24.70;;;7.80;99.90;;;;;;5040130;28;20203;-81
2023/11/17 10:59:09;;;;;;;74.20;30.88;;;7.70;99.90;;;;;;5040037;28;20412;-81
2023/11/17 11:01:39;;;;;;;71.30;28.30;;;7.60;99.90;;;;;;5040062;28;20166;-81
2023/11/17 11:04:09;;;;;;;73.63;28.83;;;7.60;99.90;;;;;;5021722;28;20248;-80
2023/11/17 11:06:40;;;;;;;65.25;26.42;;;7.60;99.90;;;;;;5040294;28;20181;-80
2023/11/17 11:09:06;;;;;;;76.75;27.73;;;7.60;99.90;;;;;;5040126;28;20508;-80
2023/11/17 11:11:32;;;;;;;66.33;27.50;;;7.60;99.90;;;;;;5039799;28;20166;-80
2023/11/17 11:14:00;;;;;;;64.85;26.65;;;7.70;99.90;;;;;;5039705;28;20189;-80
2023/11/17 11:16:32;;;;;;;71.30;26.77;;;7.70;99.90;;;;;;5021891;28;20173;-80
2023/11/17 11:19:02;;;;;;;69.80;26.20;;;7.80;99.90;;;;;;5039810;28;20192;-80
2023/11/17 11:21:33;;;;;;;73.88;28.02;;;7.80;99.90;;;;;;5039931;28;20224;-80
2023/11/17 11:24:00;;;;;;;68.45;27.45;;;7.80;99.90;;;;;;5038988;28;20185;-80
2023/11/17 11:26:31;;;;;;;79.55;28.75;;;7.80;99.90;;;;;;5039283;28;20162;-80
2023/11/17 11:29:05;;;;;;;70.82;27.65;;;7.80;99.90;;;;;;5038775;28;20620;-80
2023/11/17 11:31:32;;;;;;;64.85;25.95;;;7.80;99.90;;;;;;5021328;28;20170;-80
2023/11/17 11:34:01;;;;;;;68.40;27.05;;;7.90;99.90;;;;;;5039415;28;20235;-80
2023/11/17 11:36:27;;;;;;;70.10;28.55;;;7.90;99.90;;;;;;5038521;28;20158;-80
2023/11/17 11:38:53;;;;;;;68.00;26.27;;;8.00;99.90;;;;;;5039127;28;20709;-80
2023/11/17 11:41:24;;;;;;;73.07;26.98;;;8.00;99.90;;;;;;5020965;28;20424;-80
2023/11/17 11:43:51;;;;;;;74.15;27.00;;;8.00;99.90;;;;;;5020678;28;20194;-81
2023/11/17 11:46:20;;;;;;;68.13;25.90;;;7.90;99.90;;;;;;5039375;28;20178;-80
2023/11/17 11:49:15;;;;;;;72.65;27.33;;;7.90;99.90;;;;;;5039153;28;20647;-80
2023/11/17 11:52:01;;;;;;;71.82;27.23;;;7.90;99.90;;;;;;5037273;28;20182;-80
2023/11/17 11:54:27;;;;;;;66.85;27.65;;;7.80;99.90;;;;;;5039992;28;20555;-80
2023/11/17 11:56:55;;;;;;;71.57;26.60;;;7.80;99.90;;;;;;5022886;28;20166;-80
2023/11/17 11:59:21;;;;;;;67.43;27.92;;;7.80;99.90;;;;;;5039613;28;20409;-80
2023/11/17 12:01:49;;;;;;;71.60;27.80;;;7.80;99.90;;;;;;5038907;28;20166;-80
2023/11/17 12:04:18;;;;;;;70.82;25.38;;;7.80;99.90;;;;;;5021082;28;20248;-80
2023/11/17 12:06:44;;;;;;;66.70;27.20;;;7.80;99.90;;;;;;5022445;28;20571;-80
2023/11/17 12:09:17;;;;;;;75.60;27.33;;;7.80;99.90;;;;;;5021180;28;20181;-80
2023/11/17 12:11:50;;;;;;;64.55;24.08;;;7.80;99.90;;;;;;5038394;28;20188;-80
2023/11/17 12:14:18;;;;;;;65.50;26.65;;;7.90;99.90;;;;;;5038911;28;20181;-80
2023/11/17 12:16:51;;;;;;;61.00;22.40;;;8.10;99.90;;;;;;5020487;28;20174;-80
2023/11/17 12:19:17;;;;;;;59.42;22.92;;;8.10;99.90;;;;;;5020965;28;20170;-80
2023/11/17 12:21:48;;;;;;;66.57;25.15;;;8.20;99.90;;;;;;5021409;28;20590;-81
2023/11/17 12:24:22;;;;;;;65.00;22.83;;;8.10;99.90;;;;;;5038609;28;20523;-81
2023/11/17 12:26:50;;;;;;;68.47;22.77;;;8.10;99.90;;;;;;5021230;28;20188;-81
2023/11/17 12:29:36;;;;;;;60.53;21.73;;;8.10;99.90;;;;;;5020914;28;20189;-81
2023/11/17 12:32:08;;;;;;;58.72;21.13;;;8.10;99.90;;;;;;5021405;28;20722;-81
2023/11/17 12:34:44;;;;;;;51.78;19.10;;;8.10;99.90;;;;;;5020675;28;20189;-81
2023/11/17 12:37:10;;;;;;;54.97;18.20;;;8.00;99.90;;;;;;5022030;28;20635;-81
2023/11/17 12:39:37;;;;;;;52.53;18.07;;;8.00;99.90;;;;;;5039233;28;20177;-81
2023/11/17 12:42:07;;;;;;;55.70;19.60;;;7.90;99.90;;;;;;5020953;28;20432;-81
2023/11/17 12:47:22;;;;;;;57.17;20.23;;;7.90;99.90;;;;;;5022645;28;20683;-81